CheckWX is a tool to help pilots better visualize weather data.  It is not intended as a substitute for an official pre-flight weather briefing.

08:50:49 UTC

RKNY METAR
Yangyang International Airport
Sokcho / Gangneung, South Korea
Current

51 mins ago

RKNY 190800Z 32006KT 9999 BKN025 OVC080 03/02 Q1014 NOSIG
Observed
Feb-19 @ 08:00 UTC
Wind
  • 320° at 6 KTS
Visibility
10,000+ meters
Flight Rules
MVFR
Cloud Levels
  • Broken at 2,500' AGL
  • Overcast at 8,000' AGL
Temperature
C / 37°F
Dewpoint
C / 36°F
Humidity
93%
Altimeter
29.94" Hg
Pressure
1013.92 hPa
Previous

2 hours ago

RKNY 190700Z 32008KT 8000 -RA FEW015 BKN025 OVC080 04/02 Q1014 NOSIG
Observed
Feb-19 @ 07:00 UTC
Wind
  • 320° at 8 KTS
Visibility
7,998 meters
Flight Rules
MVFR
Conditions
Light Rain
Cloud Levels
  • Few at 1,500' AGL
  • Broken at 2,500' AGL
  • Overcast at 8,000' AGL
Temperature
C / 39°F
Dewpoint
C / 36°F
Humidity
87%
Altimeter
29.94" Hg
Pressure
1013.92 hPa
Previous

3 hours ago

RKNY 190600Z 31006KT 6000 -RA FEW007 BKN025 OVC080 03/02 Q1014 NOSIG
Observed
Feb-19 @ 06:00 UTC
Wind
  • 310° at 6 KTS
Visibility
6,003 meters
Flight Rules
MVFR
Conditions
Light Rain
Cloud Levels
  • Few at 700' AGL
  • Broken at 2,500' AGL
  • Overcast at 8,000' AGL
Temperature
C / 37°F
Dewpoint
C / 36°F
Humidity
93%
Altimeter
29.94" Hg
Pressure
1013.92 hPa